sensor_id;sensor_type;location;lat;lon;timestamp;pressure;altitude;pressure_sealevel;temperature;humidity
51147;BME280;37207;53.060;18.726;2023-04-22T00:02:12;100860.80;;;6.27;66.79
51147;BME280;37207;53.060;18.726;2023-04-22T00:04:39;100861.11;;;6.27;66.80
51147;BME280;37207;53.060;18.726;2023-04-22T00:07:12;100859.57;;;6.24;66.77
51147;BME280;37207;53.060;18.726;2023-04-22T00:09:39;100854.12;;;6.22;66.76
51147;BME280;37207;53.060;18.726;2023-04-22T00:12:06;100852.77;;;6.20;66.78
51147;BME280;37207;53.060;18.726;2023-04-22T00:14:33;100851.95;;;6.18;67.01
51147;BME280;37207;53.060;18.726;2023-04-22T00:17:00;100847.83;;;6.16;66.77
51147;BME280;37207;53.060;18.726;2023-04-22T00:19:27;100850.76;;;6.13;66.84
51147;BME280;37207;53.060;18.726;2023-04-22T00:21:54;100849.33;;;6.12;67.05
51147;BME280;37207;53.060;18.726;2023-04-22T00:24:20;100846.34;;;6.07;67.09
51147;BME280;37207;53.060;18.726;2023-04-22T00:26:47;100842.66;;;6.01;67.13
51147;BME280;37207;53.060;18.726;2023-04-22T00:29:13;100843.45;;;5.99;67.21
51147;BME280;37207;53.060;18.726;2023-04-22T00:31:40;100839.73;;;5.98;67.61
51147;BME280;37207;53.060;18.726;2023-04-22T00:34:06;100842.27;;;5.97;67.26
51147;BME280;37207;53.060;18.726;2023-04-22T00:36:33;100842.10;;;5.97;67.30
51147;BME280;37207;53.060;18.726;2023-04-22T00:38:59;100841.44;;;5.96;67.56
51147;BME280;37207;53.060;18.726;2023-04-22T00:41:26;100840.68;;;5.90;67.71
51147;BME280;37207;53.060;18.726;2023-04-22T00:43:53;100834.33;;;5.80;67.74
51147;BME280;37207;53.060;18.726;2023-04-22T00:46:20;100834.20;;;5.68;67.59
51147;BME280;37207;53.060;18.726;2023-04-22T00:48:47;100827.41;;;5.60;67.95
51147;BME280;37207;53.060;18.726;2023-04-22T00:51:13;100830.02;;;5.59;68.37
51147;BME280;37207;53.060;18.726;2023-04-22T00:53:40;100830.67;;;5.57;68.41
51147;BME280;37207;53.060;18.726;2023-04-22T00:56:06;100828.35;;;5.54;68.60
51147;BME280;37207;53.060;18.726;2023-04-22T00:58:33;100829.63;;;5.49;68.71
51147;BME280;37207;53.060;18.726;2023-04-22T01:01:00;100829.27;;;5.46;68.71
51147;BME280;37207;53.060;18.726;2023-04-22T01:03:27;100829.30;;;5.40;68.62
51147;BME280;37207;53.060;18.726;2023-04-22T01:05:55;100826.51;;;5.35;68.94
51147;BME280;37207;53.060;18.726;2023-04-22T01:08:27;100825.70;;;5.31;69.10
51147;BME280;37207;53.060;18.726;2023-04-22T01:10:56;100822.48;;;5.27;69.32
51147;BME280;37207;53.060;18.726;2023-04-22T01:13:23;100827.34;;;5.21;69.54
51147;BME280;37207;53.060;18.726;2023-04-22T01:15:50;100824.86;;;5.12;69.89
51147;BME280;37207;53.060;18.726;2023-04-22T01:18:18;100823.36;;;5.01;69.88
51147;BME280;37207;53.060;18.726;2023-04-22T01:20:45;100824.22;;;4.94;70.11
51147;BME280;37207;53.060;18.726;2023-04-22T01:23:21;100822.12;;;4.93;70.15
51147;BME280;37207;53.060;18.726;2023-04-22T01:25:48;100820.13;;;5.00;70.71
51147;BME280;37207;53.060;18.726;2023-04-22T01:28:15;100818.84;;;5.05;70.62
51147;BME280;37207;53.060;18.726;2023-04-22T01:30:43;100818.09;;;5.08;70.83
51147;BME280;37207;53.060;18.726;2023-04-22T01:33:10;100819.42;;;5.11;70.56
51147;BME280;37207;53.060;18.726;2023-04-22T01:35:37;100821.75;;;5.14;70.59
51147;BME280;37207;53.060;18.726;2023-04-22T01:38:09;100821.88;;;5.15;70.63
51147;BME280;37207;53.060;18.726;2023-04-22T01:40:37;100824.01;;;5.14;70.69
51147;BME280;37207;53.060;18.726;2023-04-22T01:43:04;100819.45;;;5.10;70.51
51147;BME280;37207;53.060;18.726;2023-04-22T01:45:31;100823.76;;;5.03;70.25
51147;BME280;37207;53.060;18.726;2023-04-22T01:47:57;100820.59;;;4.95;70.47
51147;BME280;37207;53.060;18.726;2023-04-22T01:50:24;100821.51;;;4.90;70.75
51147;BME280;37207;53.060;18.726;2023-04-22T01:52:50;100815.45;;;4.84;70.87
51147;BME280;37207;53.060;18.726;2023-04-22T01:55:17;100815.10;;;4.81;71.22
51147;BME280;37207;53.060;18.726;2023-04-22T01:57:43;100815.08;;;4.82;71.43
51147;BME280;37207;53.060;18.726;2023-04-22T02:00:11;100816.42;;;4.79;71.29
51147;BME280;37207;53.060;18.726;2023-04-22T02:02:43;100813.39;;;4.73;71.29
51147;BME280;37207;53.060;18.726;2023-04-22T02:05:09;100814.91;;;4.69;71.33
51147;BME280;37207;53.060;18.726;2023-04-22T02:07:36;100808.96;;;4.69;71.62
51147;BME280;37207;53.060;18.726;2023-04-22T02:10:05;100809.95;;;4.66;71.44
51147;BME280;37207;53.060;18.726;2023-04-22T02:12:32;100812.58;;;4.62;71.60
51147;BME280;37207;53.060;18.726;2023-04-22T02:14:59;100812.50;;;4.60;71.69
51147;BME280;37207;53.060;18.726;2023-04-22T02:17:25;100814.63;;;4.56;71.69
51147;BME280;37207;53.060;18.726;2023-04-22T02:19:52;100821.86;;;4.52;71.73
51147;BME280;37207;53.060;18.726;2023-04-22T02:22:21;100824.67;;;4.48;71.76
51147;BME280;37207;53.060;18.726;2023-04-22T02:24:50;100824.86;;;4.44;72.08
51147;BME280;37207;53.060;18.726;2023-04-22T02:27:17;100819.65;;;4.35;72.30
51147;BME280;37207;53.060;18.726;2023-04-22T02:29:44;100818.83;;;4.27;72.22
51147;BME280;37207;53.060;18.726;2023-04-22T02:32:11;100820.71;;;4.23;72.43
51147;BME280;37207;53.060;18.726;2023-04-22T02:34:40;100819.88;;;4.23;72.80
51147;BME280;37207;53.060;18.726;2023-04-22T02:37:06;100820.55;;;4.24;72.83
51147;BME280;37207;53.060;18.726;2023-04-22T02:39:33;100825.33;;;4.24;72.96
51147;BME280;37207;53.060;18.726;2023-04-22T02:42:00;100824.70;;;4.24;72.80
51147;BME280;37207;53.060;18.726;2023-04-22T02:44:27;100822.65;;;4.21;72.81
51147;BME280;37207;53.060;18.726;2023-04-22T02:46:53;100822.48;;;4.19;72.79
51147;BME280;37207;53.060;18.726;2023-04-22T02:49:21;100824.14;;;4.18;72.87
51147;BME280;37207;53.060;18.726;2023-04-22T02:51:47;100825.64;;;4.18;73.08
51147;BME280;37207;53.060;18.726;2023-04-22T02:54:14;100823.95;;;4.16;73.00
51147;BME280;37207;53.060;18.726;2023-04-22T02:56:40;100826.58;;;4.13;72.93
51147;BME280;37207;53.060;18.726;2023-04-22T02:59:07;100823.92;;;4.10;73.19
51147;BME280;37207;53.060;18.726;2023-04-22T03:01:34;100824.38;;;4.11;73.52
51147;BME280;37207;53.060;18.726;2023-04-22T03:04:01;100824.09;;;4.13;73.61
51147;BME280;37207;53.060;18.726;2023-04-22T03:06:28;100822.47;;;4.17;73.66
51147;BME280;37207;53.060;18.726;2023-04-22T03:08:55;100821.88;;;4.21;73.63
51147;BME280;37207;53.060;18.726;2023-04-22T03:11:22;100820.30;;;4.24;73.57
51147;BME280;37207;53.060;18.726;2023-04-22T03:13:48;100823.14;;;4.23;73.51
51147;BME280;37207;53.060;18.726;2023-04-22T03:16:16;100821.33;;;4.19;73.36
51147;BME280;37207;53.060;18.726;2023-04-22T03:18:43;100819.25;;;4.17;73.31
51147;BME280;37207;53.060;18.726;2023-04-22T03:21:10;100819.05;;;4.14;73.26
51147;BME280;37207;53.060;18.726;2023-04-22T03:23:36;100819.48;;;4.10;73.17
51147;BME280;37207;53.060;18.726;2023-04-22T03:26:04;100816.49;;;4.05;73.28
51147;BME280;37207;53.060;18.726;2023-04-22T03:28:32;100815.71;;;4.02;73.69
51147;BME280;37207;53.060;18.726;2023-04-22T03:30:59;100815.17;;;3.97;73.72
51147;BME280;37207;53.060;18.726;2023-04-22T03:33:25;100817.48;;;3.93;73.77
51147;BME280;37207;53.060;18.726;2023-04-22T03:36:00;100819.17;;;3.88;73.61
51147;BME280;37207;53.060;18.726;2023-04-22T03:38:27;100813.65;;;3.82;73.73
51147;BME280;37207;53.060;18.726;2023-04-22T03:40:53;100814.36;;;3.76;73.76
51147;BME280;37207;53.060;18.726;2023-04-22T03:43:31;100817.61;;;3.74;74.16
51147;BME280;37207;53.060;18.726;2023-04-22T03:46:02;100819.29;;;3.73;74.21
51147;BME280;37207;53.060;18.726;2023-04-22T03:48:30;100817.70;;;3.72;74.35
51147;BME280;37207;53.060;18.726;2023-04-22T03:51:01;100816.80;;;3.67;74.40
51147;BME280;37207;53.060;18.726;2023-04-22T03:53:30;100815.69;;;3.64;74.61
51147;BME280;37207;53.060;18.726;2023-04-22T03:55:57;100817.36;;;3.64;75.00
51147;BME280;37207;53.060;18.726;2023-04-22T03:58:24;100820.09;;;3.66;75.06
51147;BME280;37207;53.060;18.726;2023-04-22T04:00:50;100817.98;;;3.69;75.03
51147;BME280;37207;53.060;18.726;2023-04-22T04:03:18;100821.45;;;3.74;74.96
51147;BME280;37207;53.060;18.726;2023-04-22T04:05:47;100823.45;;;3.78;74.94
51147;BME280;37207;53.060;18.726;2023-04-22T04:08:13;100823.94;;;3.82;75.16
51147;BME280;37207;53.060;18.726;2023-04-22T04:10:40;100825.48;;;3.89;75.18
51147;BME280;37207;53.060;18.726;2023-04-22T04:13:07;100826.13;;;3.97;75.40
51147;BME280;37207;53.060;18.726;2023-04-22T04:15:43;100823.96;;;4.09;75.65
51147;BME280;37207;53.060;18.726;2023-04-22T04:18:10;100828.91;;;4.18;75.55
51147;BME280;37207;53.060;18.726;2023-04-22T04:20:37;100826.09;;;4.32;75.61
51147;BME280;37207;53.060;18.726;2023-04-22T04:23:03;100823.27;;;4.58;75.90
51147;BME280;37207;53.060;18.726;2023-04-22T04:25:30;100820.36;;;4.82;75.82
51147;BME280;37207;53.060;18.726;2023-04-22T04:28:05;100816.73;;;5.07;75.27
51147;BME280;37207;53.060;18.726;2023-04-22T04:30:34;100816.80;;;5.30;75.26
51147;BME280;37207;53.060;18.726;2023-04-22T04:33:02;100815.17;;;5.52;74.90
51147;BME280;37207;53.060;18.726;2023-04-22T04:35:35;100812.29;;;5.78;74.91
51147;BME280;37207;53.060;18.726;2023-04-22T04:38:04;100816.11;;;6.03;74.42
51147;BME280;37207;53.060;18.726;2023-04-22T04:40:33;100818.23;;;6.15;73.79
51147;BME280;37207;53.060;18.726;2023-04-22T04:43:16;100817.89;;;6.28;73.66
51147;BME280;37207;53.060;18.726;2023-04-22T04:45:49;100815.08;;;6.40;73.33
51147;BME280;37207;53.060;18.726;2023-04-22T04:48:18;100816.11;;;6.56;73.21
51147;BME280;37207;53.060;18.726;2023-04-22T04:50:50;100819.46;;;6.72;73.06
51147;BME280;37207;53.060;18.726;2023-04-22T04:53:20;100817.42;;;6.80;72.74
51147;BME280;37207;53.060;18.726;2023-04-22T04:55:47;100815.61;;;6.99;72.78
51147;BME280;37207;53.060;18.726;2023-04-22T04:58:19;100813.29;;;7.19;72.60
51147;BME280;37207;53.060;18.726;2023-04-22T05:00:47;100814.91;;;7.27;72.32
51147;BME280;37207;53.060;18.726;2023-04-22T05:03:15;100812.39;;;7.29;71.66
51147;BME280;37207;53.060;18.726;2023-04-22T05:05:41;100812.10;;;7.36;71.27
51147;BME280;37207;53.060;18.726;2023-04-22T05:08:08;100813.81;;;7.56;71.12
51147;BME280;37207;53.060;18.726;2023-04-22T05:10:36;100811.34;;;7.57;70.51
51147;BME280;37207;53.060;18.726;2023-04-22T05:13:03;100809.55;;;7.53;70.42
51147;BME280;37207;53.060;18.726;2023-04-22T05:15:30;100813.44;;;7.49;70.22
51147;BME280;37207;53.060;18.726;2023-04-22T05:17:56;100816.67;;;7.45;70.28
51147;BME280;37207;53.060;18.726;2023-04-22T05:20:23;100816.33;;;7.42;70.39
51147;BME280;37207;53.060;18.726;2023-04-22T05:22:50;100815.53;;;7.41;70.14
51147;BME280;37207;53.060;18.726;2023-04-22T05:25:16;100812.99;;;7.41;70.50
51147;BME280;37207;53.060;18.726;2023-04-22T05:27:50;100816.17;;;7.44;70.67
51147;BME280;37207;53.060;18.726;2023-04-22T05:30:18;100814.69;;;7.49;70.75
51147;BME280;37207;53.060;18.726;2023-04-22T05:32:44;100813.68;;;7.52;70.63
51147;BME280;37207;53.060;18.726;2023-04-22T05:35:11;100812.46;;;7.57;70.73
51147;BME280;37207;53.060;18.726;2023-04-22T05:37:38;100813.09;;;7.64;70.86
51147;BME280;37207;53.060;18.726;2023-04-22T05:40:06;100811.80;;;7.70;70.79
51147;BME280;37207;53.060;18.726;2023-04-22T05:42:33;100807.47;;;7.76;70.77
51147;BME280;37207;53.060;18.726;2023-04-22T05:45:00;100806.41;;;7.82;70.75
51147;BME280;37207;53.060;18.726;2023-04-22T05:47:28;100806.92;;;7.88;70.64
51147;BME280;37207;53.060;18.726;2023-04-22T05:49:56;100803.38;;;8.00;70.46
51147;BME280;37207;53.060;18.726;2023-04-22T05:52:31;100808.46;;;8.14;70.15
51147;BME280;37207;53.060;18.726;2023-04-22T05:55:04;100810.87;;;8.28;70.05
51147;BME280;37207;53.060;18.726;2023-04-22T05:57:32;100810.88;;;8.41;69.88
51147;BME280;37207;53.060;18.726;2023-04-22T05:59:59;100810.75;;;8.48;69.66
51147;BME280;37207;53.060;18.726;2023-04-22T06:02:26;100812.73;;;8.54;69.55
51147;BME280;37207;53.060;18.726;2023-04-22T06:04:53;100804.42;;;8.60;69.42
51147;BME280;37207;53.060;18.726;2023-04-22T06:07:21;100803.95;;;8.66;69.27
51147;BME280;37207;53.060;18.726;2023-04-22T06:09:48;100802.27;;;8.72;69.10
51147;BME280;37207;53.060;18.726;2023-04-22T06:12:14;100802.06;;;8.79;69.21
51147;BME280;37207;53.060;18.726;2023-04-22T06:14:41;100802.38;;;8.86;69.12
51147;BME280;37207;53.060;18.726;2023-04-22T06:17:07;100798.30;;;8.97;69.20
51147;BME280;37207;53.060;18.726;2023-04-22T06:19:35;100798.52;;;9.08;69.15
51147;BME280;37207;53.060;18.726;2023-04-22T06:22:02;100801.30;;;9.19;69.11
51147;BME280;37207;53.060;18.726;2023-04-22T06:24:29;100801.30;;;9.31;68.85
51147;BME280;37207;53.060;18.726;2023-04-22T06:26:55;100799.64;;;9.42;68.76
51147;BME280;37207;53.060;18.726;2023-04-22T06:29:23;100799.51;;;9.54;68.62
51147;BME280;37207;53.060;18.726;2023-04-22T06:31:50;100797.58;;;9.66;68.50
51147;BME280;37207;53.060;18.726;2023-04-22T06:34:17;100794.91;;;9.80;68.71
51147;BME280;37207;53.060;18.726;2023-04-22T06:36:43;100798.73;;;9.95;68.66
51147;BME280;37207;53.060;18.726;2023-04-22T06:39:10;100789.61;;;10.10;68.54
51147;BME280;37207;53.060;18.726;2023-04-22T06:41:39;100792.39;;;10.29;68.55
51147;BME280;37207;53.060;18.726;2023-04-22T06:44:20;100796.50;;;10.49;68.03
51147;BME280;37207;53.060;18.726;2023-04-22T06:47:16;100795.08;;;10.73;67.92
51147;BME280;37207;53.060;18.726;2023-04-22T06:49:51;100793.44;;;10.93;67.52
51147;BME280;37207;53.060;18.726;2023-04-22T06:52:28;100792.05;;;11.15;67.47
51147;BME280;37207;53.060;18.726;2023-04-22T06:54:56;100788.05;;;11.36;67.24
51147;BME280;37207;53.060;18.726;2023-04-22T06:57:23;100789.39;;;11.56;66.68
51147;BME280;37207;53.060;18.726;2023-04-22T06:59:49;100787.02;;;11.74;66.49
51147;BME280;37207;53.060;18.726;2023-04-22T07:02:16;100790.08;;;11.94;66.05
51147;BME280;37207;53.060;18.726;2023-04-22T07:04:43;100793.16;;;12.14;65.70
51147;BME280;37207;53.060;18.726;2023-04-22T07:07:10;100791.80;;;12.35;65.56
51147;BME280;37207;53.060;18.726;2023-04-22T07:09:36;100792.88;;;12.53;65.02
51147;BME280;37207;53.060;18.726;2023-04-22T07:12:03;100791.67;;;12.73;64.96
51147;BME280;37207;53.060;18.726;2023-04-22T07:14:30;100788.58;;;12.96;64.67
51147;BME280;37207;53.060;18.726;2023-04-22T07:16:58;100792.64;;;13.15;63.79
51147;BME280;37207;53.060;18.726;2023-04-22T07:19:25;100795.00;;;13.35;63.68
51147;BME280;37207;53.060;18.726;2023-04-22T07:21:53;100794.25;;;13.58;63.56
51147;BME280;37207;53.060;18.726;2023-04-22T07:24:19;100790.29;;;13.82;62.39
51147;BME280;37207;53.060;18.726;2023-04-22T07:26:46;100789.95;;;14.00;61.07
51147;BME280;37207;53.060;18.726;2023-04-22T07:29:12;100791.61;;;14.19;61.58
51147;BME280;37207;53.060;18.726;2023-04-22T07:31:39;100787.97;;;14.42;61.07
51147;BME280;37207;53.060;18.726;2023-04-22T07:34:05;100784.85;;;14.63;61.03
51147;BME280;37207;53.060;18.726;2023-04-22T07:36:32;100788.69;;;14.83;60.46
51147;BME280;37207;53.060;18.726;2023-04-22T07:38:59;100783.96;;;15.04;60.35
51147;BME280;37207;53.060;18.726;2023-04-22T07:41:25;100784.09;;;15.30;59.98
51147;BME280;37207;53.060;18.726;2023-04-22T07:43:52;100785.95;;;15.53;59.17
51147;BME280;37207;53.060;18.726;2023-04-22T07:46:18;100784.92;;;15.73;59.07
51147;BME280;37207;53.060;18.726;2023-04-22T07:48:46;100779.92;;;15.98;59.01
51147;BME280;37207;53.060;18.726;2023-04-22T07:51:12;100779.21;;;16.21;58.71
51147;BME280;37207;53.060;18.726;2023-04-22T07:53:39;100783.10;;;16.40;57.93
51147;BME280;37207;53.060;18.726;2023-04-22T07:56:05;100785.73;;;16.56;57.35
51147;BME280;37207;53.060;18.726;2023-04-22T07:58:32;100790.00;;;16.76;56.86
51147;BME280;37207;53.060;18.726;2023-04-22T08:00:58;100791.47;;;16.98;56.27
51147;BME280;37207;53.060;18.726;2023-04-22T08:03:25;100792.13;;;17.22;55.80
51147;BME280;37207;53.060;18.726;2023-04-22T08:05:52;100791.72;;;17.49;54.68
51147;BME280;37207;53.060;18.726;2023-04-22T08:08:18;100787.33;;;17.65;54.90
51147;BME280;37207;53.060;18.726;2023-04-22T08:10:45;100788.41;;;17.82;54.81
51147;BME280;37207;53.060;18.726;2023-04-22T08:13:11;100787.48;;;17.99;54.28
51147;BME280;37207;53.060;18.726;2023-04-22T08:15:38;100786.69;;;18.16;53.83
51147;BME280;37207;53.060;18.726;2023-04-22T08:18:05;100786.42;;;18.31;52.26
51147;BME280;37207;53.060;18.726;2023-04-22T08:20:32;100782.79;;;18.53;52.52
51147;BME280;37207;53.060;18.726;2023-04-22T08:22:58;100784.86;;;18.68;52.67
51147;BME280;37207;53.060;18.726;2023-04-22T08:25:26;100784.85;;;18.82;52.24
51147;BME280;37207;53.060;18.726;2023-04-22T08:27:53;100786.45;;;18.96;50.85
51147;BME280;37207;53.060;18.726;2023-04-22T08:30:20;100787.31;;;19.08;50.13
51147;BME280;37207;53.060;18.726;2023-04-22T08:32:47;100785.14;;;19.13;49.07
51147;BME280;37207;53.060;18.726;2023-04-22T08:35:13;100785.98;;;19.21;49.30
51147;BME280;37207;53.060;18.726;2023-04-22T08:37:40;100786.25;;;19.37;50.01
51147;BME280;37207;53.060;18.726;2023-04-22T08:40:08;100783.05;;;19.48;49.43
51147;BME280;37207;53.060;18.726;2023-04-22T08:42:36;100781.90;;;19.56;48.51
51147;BME280;37207;53.060;18.726;2023-04-22T08:45:03;100779.14;;;19.58;48.57
51147;BME280;37207;53.060;18.726;2023-04-22T08:47:31;100781.41;;;19.67;47.92
51147;BME280;37207;53.060;18.726;2023-04-22T08:50:00;100777.88;;;19.81;47.49
51147;BME280;37207;53.060;18.726;2023-04-22T08:52:29;100776.24;;;20.02;47.80
51147;BME280;37207;53.060;18.726;2023-04-22T08:54:56;100775.77;;;20.17;47.07
51147;BME280;37207;53.060;18.726;2023-04-22T08:57:23;100776.14;;;20.30;47.38
51147;BME280;37207;53.060;18.726;2023-04-22T08:59:51;100773.49;;;20.39;47.33
51147;BME280;37207;53.060;18.726;2023-04-22T09:02:22;100775.56;;;20.47;47.26
51147;BME280;37207;53.060;18.726;2023-04-22T09:04:51;100773.15;;;20.54;47.01
51147;BME280;37207;53.060;18.726;2023-04-22T09:07:23;100774.52;;;20.64;46.11
51147;BME280;37207;53.060;18.726;2023-04-22T09:09:51;100772.23;;;20.70;45.06
51147;BME280;37207;53.060;18.726;2023-04-22T09:12:18;100769.33;;;20.85;45.40
51147;BME280;37207;53.060;18.726;2023-04-22T09:14:45;100767.48;;;21.08;46.17
51147;BME280;37207;53.060;18.726;2023-04-22T09:17:16;100769.15;;;21.27;45.87
51147;BME280;37207;53.060;18.726;2023-04-22T09:19:44;100768.89;;;21.38;45.13
51147;BME280;37207;53.060;18.726;2023-04-22T09:22:12;100764.08;;;21.48;45.03
51147;BME280;37207;53.060;18.726;2023-04-22T09:24:50;100761.98;;;21.50;45.32
51147;BME280;37207;53.060;18.726;2023-04-22T09:27:22;100752.17;;;21.55;45.02
51147;BME280;37207;53.060;18.726;2023-04-22T09:29:50;100752.98;;;21.63;44.26
51147;BME280;37207;53.060;18.726;2023-04-22T09:32:18;100752.44;;;21.74;45.07
51147;BME280;37207;53.060;18.726;2023-04-22T09:34:49;100747.80;;;21.94;44.20
51147;BME280;37207;53.060;18.726;2023-04-22T09:37:23;100747.83;;;22.14;43.68
51147;BME280;37207;53.060;18.726;2023-04-22T09:39:51;100742.89;;;22.35;44.02
51147;BME280;37207;53.060;18.726;2023-04-22T09:42:19;100740.06;;;22.53;42.83
51147;BME280;37207;53.060;18.726;2023-04-22T09:44:50;100737.85;;;22.59;42.03
51147;BME280;37207;53.060;18.726;2023-04-22T09:47:20;100735.89;;;22.59;41.62
51147;BME280;37207;53.060;18.726;2023-04-22T09:49:49;100734.61;;;22.59;41.75
51147;BME280;37207;53.060;18.726;2023-04-22T09:52:23;100724.71;;;22.58;41.82
51147;BME280;37207;53.060;18.726;2023-04-22T09:54:52;100723.21;;;22.55;41.95
51147;BME280;37207;53.060;18.726;2023-04-22T09:57:20;100720.77;;;22.63;41.51
51147;BME280;37207;53.060;18.726;2023-04-22T09:59:50;100716.45;;;22.70;40.68
51147;BME280;37207;53.060;18.726;2023-04-22T10:02:17;100712.50;;;22.79;41.10
51147;BME280;37207;53.060;18.726;2023-04-22T10:04:45;100710.47;;;22.91;41.04
51147;BME280;37207;53.060;18.726;2023-04-22T10:07:13;100709.73;;;23.05;40.90
51147;BME280;37207;53.060;18.726;2023-04-22T10:09:40;100710.23;;;23.31;40.37
51147;BME280;37207;53.060;18.726;2023-04-22T10:12:07;100707.92;;;23.65;39.34
51147;BME280;37207;53.060;18.726;2023-04-22T10:14:33;100705.59;;;23.93;39.20
51147;BME280;37207;53.060;18.726;2023-04-22T10:17:00;100707.19;;;24.33;39.49
51147;BME280;37207;53.060;18.726;2023-04-22T10:19:29;100706.69;;;24.97;39.75
51147;BME280;37207;53.060;18.726;2023-04-22T10:21:59;100701.45;;;25.87;38.19
51147;BME280;37207;53.060;18.726;2023-04-22T10:24:27;100701.40;;;26.95;37.79
51147;BME280;37207;53.060;18.726;2023-04-22T10:26:56;100693.80;;;28.05;36.20
51147;BME280;37207;53.060;18.726;2023-04-22T10:29:25;100691.55;;;29.12;35.33
51147;BME280;37207;53.060;18.726;2023-04-22T10:31:54;100694.02;;;30.20;34.92
51147;BME280;37207;53.060;18.726;2023-04-22T10:34:24;100691.95;;;31.32;33.05
51147;BME280;37207;53.060;18.726;2023-04-22T10:36:58;100688.98;;;32.34;31.61
51147;BME280;37207;53.060;18.726;2023-04-22T10:39:27;100682.41;;;33.02;30.06
51147;BME280;37207;53.060;18.726;2023-04-22T10:44:46;100678.52;;;34.03;28.73
51147;BME280;37207;53.060;18.726;2023-04-22T10:47:24;100675.35;;;34.40;28.72
51147;BME280;37207;53.060;18.726;2023-04-22T10:52:34;100664.91;;;34.44;27.86
51147;BME280;37207;53.060;18.726;2023-04-22T10:55:01;100667.67;;;33.91;28.03
51147;BME280;37207;53.060;18.726;2023-04-22T10:57:35;100665.45;;;33.03;28.13
51147;BME280;37207;53.060;18.726;2023-04-22T11:00:26;100658.95;;;32.25;29.42
51147;BME280;37207;53.060;18.726;2023-04-22T11:05:25;100660.95;;;31.58;29.56
51147;BME280;37207;53.060;18.726;2023-04-22T11:07:54;100656.01;;;31.40;29.74
51147;BME280;37207;53.060;18.726;2023-04-22T11:10:34;100654.52;;;31.26;30.22
51147;BME280;37207;53.060;18.726;2023-04-22T11:13:04;100654.48;;;31.09;30.08
51147;BME280;37207;53.060;18.726;2023-04-22T11:15:34;100649.55;;;30.82;29.99
51147;BME280;37207;53.060;18.726;2023-04-22T11:18:01;100653.79;;;30.51;30.10
51147;BME280;37207;53.060;18.726;2023-04-22T11:20:28;100649.42;;;30.20;29.64
51147;BME280;37207;53.060;18.726;2023-04-22T11:22:56;100638.63;;;29.82;29.95
51147;BME280;37207;53.060;18.726;2023-04-22T11:25:24;100641.71;;;29.59;30.26
51147;BME280;37207;53.060;18.726;2023-04-22T11:27:52;100636.46;;;29.41;30.28
51147;BME280;37207;53.060;18.726;2023-04-22T11:30:22;100633.30;;;29.36;30.64
51147;BME280;37207;53.060;18.726;2023-04-22T11:32:51;100628.50;;;29.36;31.47
51147;BME280;37207;53.060;18.726;2023-04-22T11:35:31;100626.27;;;29.33;30.56
51147;BME280;37207;53.060;18.726;2023-04-22T11:38:00;100625.23;;;29.15;30.40
51147;BME280;37207;53.060;18.726;2023-04-22T11:40:40;100629.05;;;28.97;31.03
51147;BME280;37207;53.060;18.726;2023-04-22T11:43:08;100623.64;;;28.86;31.11
51147;BME280;37207;53.060;18.726;2023-04-22T11:45:36;100619.19;;;28.85;30.52
51147;BME280;37207;53.060;18.726;2023-04-22T11:48:05;100618.05;;;28.85;30.83
51147;BME280;37207;53.060;18.726;2023-04-22T11:50:35;100615.30;;;28.86;31.58
51147;BME280;37207;53.060;18.726;2023-04-22T11:53:16;100611.30;;;28.90;31.27
51147;BME280;37207;53.060;18.726;2023-04-22T11:55:45;100611.08;;;28.91;31.06
51147;BME280;37207;53.060;18.726;2023-04-22T11:58:26;100607.69;;;28.92;30.69
51147;BME280;37207;53.060;18.726;2023-04-22T12:00:54;100603.65;;;29.04;30.91
51147;BME280;37207;53.060;18.726;2023-04-22T12:03:26;100604.06;;;29.04;30.30
51147;BME280;37207;53.060;18.726;2023-04-22T12:05:58;100602.19;;;28.95;30.53
51147;BME280;37207;53.060;18.726;2023-04-22T12:08:30;100599.81;;;28.95;30.33
51147;BME280;37207;53.060;18.726;2023-04-22T12:10:59;100598.54;;;29.00;30.41
51147;BME280;37207;53.060;18.726;2023-04-22T12:16:08;100588.99;;;29.42;30.46
51147;BME280;37207;53.060;18.726;2023-04-22T12:18:37;100588.96;;;29.65;30.28
51147;BME280;37207;53.060;18.726;2023-04-22T12:23:51;100591.86;;;30.14;30.06
51147;BME280;37207;53.060;18.726;2023-04-22T12:26:20;100591.31;;;30.47;29.68
51147;BME280;37207;53.060;18.726;2023-04-22T12:28:47;100585.57;;;30.77;28.24
51147;BME280;37207;53.060;18.726;2023-04-22T12:31:15;100583.52;;;31.05;28.35
51147;BME280;37207;53.060;18.726;2023-04-22T12:33:42;100585.77;;;31.37;28.75
51147;BME280;37207;53.060;18.726;2023-04-22T12:36:10;100579.51;;;31.65;27.50
51147;BME280;37207;53.060;18.726;2023-04-22T12:38:37;100574.45;;;31.80;27.41
51147;BME280;37207;53.060;18.726;2023-04-22T12:41:05;100574.57;;;31.94;26.85
51147;BME280;37207;53.060;18.726;2023-04-22T12:43:32;100567.56;;;32.06;26.33
51147;BME280;37207;53.060;18.726;2023-04-22T12:46:02;100567.41;;;32.20;27.36
51147;BME280;37207;53.060;18.726;2023-04-22T12:48:29;100561.52;;;32.34;26.90
51147;BME280;37207;53.060;18.726;2023-04-22T12:50:56;100560.86;;;32.44;27.03
51147;BME280;37207;53.060;18.726;2023-04-22T12:53:25;100560.06;;;32.51;26.57
51147;BME280;37207;53.060;18.726;2023-04-22T12:55:52;100556.74;;;32.51;26.42
51147;BME280;37207;53.060;18.726;2023-04-22T12:58:19;100553.50;;;32.37;25.95
51147;BME280;37207;53.060;18.726;2023-04-22T13:00:46;100551.77;;;32.28;26.20
51147;BME280;37207;53.060;18.726;2023-04-22T13:03:12;100547.92;;;32.16;25.70
51147;BME280;37207;53.060;18.726;2023-04-22T13:05:39;100546.20;;;32.04;26.30